Time;durP1;ratioP1;P1;durP2;ratioP2;P2;SDS_P1;SDS_P2;PMS_P1;PMS_P2;Temp;Humidity;BMP_temperature;BMP_pressure;BME280_temperature;BME280_humidity;BME280_pressure;Samples;Min_cycle;Max_cycle;Signal;HPM_P1;HPM_P2
2022/04/24 00:00:02;;;;;;;15.10;12.67;;;10.80;99.90;;;;;;5023446;28;20452;-86
2022/04/24 00:02:29;;;;;;;13.00;11.67;;;10.70;99.90;;;;;;5041601;28;20448;-86
2022/04/24 00:04:57;;;;;;;14.80;13.10;;;10.80;99.90;;;;;;5042245;28;20579;-85
2022/04/24 00:07:24;;;;;;;15.57;12.10;;;11.00;99.90;;;;;;5044122;28;20459;-85
2022/04/24 00:09:51;;;;;;;13.47;11.33;;;11.00;99.90;;;;;;5045076;28;20459;-86
2022/04/24 00:12:18;;;;;;;16.33;14.60;;;11.10;99.90;;;;;;5028662;28;20591;-86
2022/04/24 00:14:45;;;;;;;16.47;14.80;;;11.10;99.90;;;;;;5023823;28;20884;-87
2022/04/24 00:17:16;;;;;;;15.87;13.67;;;11.20;99.90;;;;;;5024016;28;20474;-85
2022/04/24 04:31:01;;;;;;;26.70;20.10;;;10.50;99.90;;;;;;4945705;29;20471;-84
2022/04/24 04:33:28;;;;;;;25.00;20.00;;;10.30;99.90;;;;;;4944402;29;20488;-84
2022/04/24 04:35:55;;;;;;;11.80;9.45;;;9.90;99.90;;;;;;4928283;29;20484;-84
2022/04/24 04:38:21;;;;;;;9.00;7.25;;;9.30;99.90;;;;;;4925873;29;20613;-84
2022/04/24 04:40:48;;;;;;;5.75;5.13;;;9.00;99.90;;;;;;4930325;29;20208;-86
2022/04/24 04:43:15;;;;;;;5.25;4.47;;;8.70;99.90;;;;;;4946098;29;20222;-85
2022/04/24 04:45:41;;;;;;;4.55;4.15;;;8.50;99.90;;;;;;4940195;29;20215;-84
2022/04/24 04:48:09;;;;;;;2.90;2.65;;;8.30;99.90;;;;;;4930885;29;20222;-85
2022/04/24 04:50:36;;;;;;;1.80;1.70;;;8.20;99.90;;;;;;4944328;29;20214;-86
2022/04/24 04:53:03;;;;;;;3.05;2.65;;;8.00;99.90;;;;;;4944483;29;20589;-85
2022/04/24 04:55:30;;;;;;;3.30;2.35;;;8.00;99.90;;;;;;4948654;29;20213;-84
2022/04/24 04:57:57;;;;;;;5.25;2.08;;;8.00;99.90;;;;;;4959704;29;20210;-83
2022/04/24 05:00:25;;;;;;;1.13;1.08;;;8.00;99.90;;;;;;4950944;29;20245;-85
2022/04/24 05:02:51;;;;;;;1.27;1.17;;;7.90;99.90;;;;;;4943529;29;20198;-85
2022/04/24 05:05:19;;;;;;;1.42;1.33;;;7.70;99.90;;;;;;4940394;29;20206;-85
2022/04/24 05:07:47;;;;;;;1.20;1.10;;;7.80;99.90;;;;;;4924656;29;20210;-85
2022/04/24 05:10:14;;;;;;;0.55;0.50;;;7.70;99.90;;;;;;4927723;29;20206;-85
2022/04/24 05:12:41;;;;;;;2.03;0.65;;;7.60;99.90;;;;;;4925028;29;20223;-86
2022/04/24 05:15:11;;;;;;;0.52;0.52;;;7.40;99.90;;;;;;4926452;29;20226;-85
2022/04/24 05:17:37;;;;;;;1.00;0.70;;;7.50;99.90;;;;;;4946014;29;20245;-84
2022/04/24 05:20:05;;;;;;;0.63;0.63;;;7.50;99.90;;;;;;4940634;29;20230;-85
2022/04/24 05:22:40;;;;;;;0.70;0.60;;;7.40;99.90;;;;;;4929685;29;20829;-84
2022/04/24 05:25:09;;;;;;;0.60;0.40;;;7.40;99.90;;;;;;4927307;29;20206;-86
2022/04/24 05:27:37;;;;;;;0.50;0.47;;;7.30;99.90;;;;;;4928528;29;20234;-85
2022/04/24 05:30:07;;;;;;;0.40;0.40;;;7.30;99.90;;;;;;4939932;29;20292;-87
2022/04/24 05:32:48;;;;;;;0.93;0.40;;;7.30;99.90;;;;;;4945402;29;20674;-84
2022/04/24 05:35:15;;;;;;;0.73;0.73;;;7.30;99.90;;;;;;4944858;29;20278;-85
2022/04/24 05:37:47;;;;;;;1.70;1.60;;;7.20;99.90;;;;;;4947304;29;20199;-85
2022/04/24 05:40:15;;;;;;;0.55;0.40;;;7.20;99.90;;;;;;4935256;29;20210;-85
2022/04/24 05:42:46;;;;;;;0.20;0.20;;;7.10;99.90;;;;;;4940255;29;20229;-84
2022/04/24 05:45:14;;;;;;;0.30;0.30;;;7.10;99.90;;;;;;4954025;29;20214;-84
2022/04/24 05:47:41;;;;;;;0.30;0.30;;;7.00;99.90;;;;;;4953889;29;20209;-84
2022/04/24 05:50:11;;;;;;;0.20;0.20;;;6.90;99.90;;;;;;4954110;29;20233;-84
2022/04/24 05:52:41;;;;;;;0.20;0.20;;;6.90;99.90;;;;;;4935431;29;20195;-83
2022/04/24 05:55:10;;;;;;;0.20;0.20;;;6.90;99.90;;;;;;4936369;29;20282;-83
2022/04/24 05:57:37;;;;;;;0.20;0.20;;;6.90;99.90;;;;;;4937309;29;20208;-85
2022/04/24 06:00:04;;;;;;;0.25;0.25;;;6.90;99.90;;;;;;4935776;29;20230;-84
2022/04/24 06:02:31;;;;;;;0.20;0.20;;;6.90;99.90;;;;;;4940770;29;20233;-84
2022/04/24 06:04:58;;;;;;;0.30;0.30;;;6.90;99.90;;;;;;4933769;29;20247;-85
2022/04/24 06:07:25;;;;;;;0.20;0.20;;;6.90;99.90;;;;;;4941683;29;20575;-84
2022/04/24 06:09:52;;;;;;;0.30;0.30;;;6.80;99.90;;;;;;4951395;29;20242;-84
2022/04/24 06:12:20;;;;;;;0.20;0.20;;;6.90;99.90;;;;;;4936023;29;20217;-84
2022/04/24 06:14:47;;;;;;;0.20;0.20;;;6.80;99.90;;;;;;4932227;29;20234;-84
2022/04/24 06:17:14;;;;;;;0.30;0.30;;;6.90;99.90;;;;;;4933293;29;20214;-84
2022/04/24 06:19:40;;;;;;;0.30;0.30;;;6.90;99.90;;;;;;4929314;29;20243;-84
2022/04/24 06:22:07;;;;;;;0.30;0.30;;;6.90;99.90;;;;;;4940716;29;20217;-83
2022/04/24 06:24:34;;;;;;;0.30;0.30;;;6.90;99.90;;;;;;4941890;29;20206;-84
2022/04/24 06:27:00;;;;;;;0.30;0.30;;;6.90;99.90;;;;;;4941282;29;20217;-82
2022/04/24 06:29:28;;;;;;;0.30;0.30;;;6.90;99.90;;;;;;4943203;29;20233;-81
2022/04/24 06:31:55;;;;;;;0.20;0.20;;;6.80;99.90;;;;;;4941194;29;20213;-82
2022/04/24 06:34:22;;;;;;;0.20;0.20;;;6.80;99.90;;;;;;4946908;29;20225;-82
2022/04/24 06:36:49;;;;;;;0.20;0.20;;;6.70;99.90;;;;;;4945410;29;20213;-82
2022/04/24 06:39:15;;;;;;;0.20;0.20;;;6.80;99.90;;;;;;4945486;29;20226;-82
2022/04/24 06:41:42;;;;;;;0.30;0.30;;;6.70;99.90;;;;;;4946487;29;20248;-82
2022/04/24 06:44:09;;;;;;;0.28;0.28;;;6.70;99.90;;;;;;4936501;29;20206;-82
2022/04/24 06:46:37;;;;;;;0.20;0.20;;;6.80;99.90;;;;;;4931252;29;20202;-82
2022/04/24 06:49:04;;;;;;;0.20;0.20;;;6.80;99.90;;;;;;4945398;29;20617;-82
2022/04/24 06:51:30;;;;;;;0.20;0.20;;;6.80;99.90;;;;;;4945850;29;20210;-82
2022/04/24 06:53:57;;;;;;;0.30;0.30;;;6.80;99.90;;;;;;4928984;29;20233;-82
2022/04/24 06:56:24;;;;;;;0.20;0.20;;;6.80;99.90;;;;;;4944145;29;20213;-82
2022/04/24 06:58:51;;;;;;;0.20;0.20;;;6.80;99.90;;;;;;4946071;29;20237;-82
2022/04/24 07:01:23;;;;;;;0.25;0.25;;;6.80;99.90;;;;;;4945552;29;20731;-82
2022/04/24 07:06:50;;;;;;;0.20;0.20;;;6.90;99.90;;;;;;4926421;29;20213;-81
2022/04/24 07:09:21;;;;;;;0.20;0.20;;;6.90;99.90;;;;;;4943322;29;20276;-84
2022/04/24 07:11:49;;;;;;;0.20;0.20;;;7.00;99.90;;;;;;4931437;29;20653;-84
2022/04/24 07:14:25;;;;;;;0.30;0.30;;;7.00;99.90;;;;;;4927392;29;20227;-85
2022/04/24 07:16:55;;;;;;;0.30;0.30;;;7.10;99.90;;;;;;4939489;29;20205;-84
2022/04/24 07:19:24;;;;;;;0.20;0.20;;;7.20;99.90;;;;;;4947632;29;20230;-84
2022/04/24 07:21:53;;;;;;;0.20;0.20;;;7.20;99.90;;;;;;4935805;29;20211;-82
2022/04/24 07:24:20;;;;;;;0.30;0.30;;;7.30;99.90;;;;;;4935267;29;20213;-82
2022/04/24 07:26:47;;;;;;;0.20;0.20;;;7.30;99.90;;;;;;4947167;29;20243;-82
2022/04/24 07:29:15;;;;;;;0.30;0.30;;;7.50;99.90;;;;;;4940262;29;20238;-82
2022/04/24 07:31:42;;;;;;;0.20;0.20;;;7.40;99.90;;;;;;4926955;29;20210;-82
2022/04/24 07:34:08;;;;;;;0.20;0.20;;;7.50;99.90;;;;;;4932066;29;20228;-82
2022/04/24 07:36:37;;;;;;;0.30;0.30;;;7.40;99.90;;;;;;4942097;29;20205;-82
2022/04/24 07:39:03;;;;;;;0.20;0.20;;;7.30;99.90;;;;;;4942652;29;20245;-83
2022/04/24 07:41:30;;;;;;;0.30;0.30;;;7.40;99.90;;;;;;4923267;29;20214;-83
2022/04/24 07:43:57;;;;;;;0.20;0.20;;;7.40;99.90;;;;;;4921843;29;20213;-84
2022/04/24 07:46:24;;;;;;;0.30;0.30;;;7.30;99.90;;;;;;4944263;29;20213;-84
2022/04/24 07:48:50;;;;;;;0.20;0.20;;;7.30;99.90;;;;;;4934534;29;20617;-83
2022/04/24 07:51:17;;;;;;;1.30;1.30;;;7.30;99.90;;;;;;4926379;29;20210;-85
2022/04/24 07:53:45;;;;;;;0.20;0.20;;;7.20;99.90;;;;;;4920925;29;20233;-84
2022/04/24 07:56:12;;;;;;;0.20;0.20;;;7.20;99.90;;;;;;4933833;29;20206;-86
2022/04/24 07:58:39;;;;;;;0.20;0.20;;;7.30;99.90;;;;;;4939093;29;20593;-85
2022/04/24 08:01:06;;;;;;;0.20;0.20;;;7.40;99.90;;;;;;4938461;29;20210;-88
2022/04/24 08:03:32;;;;;;;0.30;0.30;;;7.50;99.90;;;;;;4938663;29;20201;-83
2022/04/24 08:05:59;;;;;;;0.20;0.20;;;7.60;99.90;;;;;;4925844;29;20683;-85
2022/04/24 08:08:26;;;;;;;0.20;0.20;;;7.80;99.90;;;;;;4928728;29;20732;-85
2022/04/24 08:10:57;;;;;;;0.20;0.20;;;8.00;99.90;;;;;;4943909;29;20305;-86
2022/04/24 08:13:24;;;;;;;0.20;0.20;;;8.10;99.90;;;;;;4929336;29;20203;-84
2022/04/24 08:15:52;;;;;;;0.20;0.20;;;8.20;99.90;;;;;;4933895;29;20214;-84
2022/04/24 08:18:19;;;;;;;0.30;0.30;;;8.30;99.90;;;;;;4933209;29;20306;-84
2022/04/24 08:20:47;;;;;;;0.30;0.30;;;8.50;99.90;;;;;;4937883;29;20238;-84
2022/04/24 08:23:16;;;;;;;0.20;0.20;;;8.60;99.90;;;;;;4943814;29;20225;-84
2022/04/24 08:25:43;;;;;;;0.28;0.28;;;8.60;99.90;;;;;;4938110;29;20206;-82
2022/04/24 08:28:12;;;;;;;0.30;0.30;;;8.60;99.90;;;;;;4936082;29;20625;-82
2022/04/24 08:30:40;;;;;;;0.20;0.20;;;8.60;99.90;;;;;;4934933;29;20238;-84
2022/04/24 08:33:07;;;;;;;0.20;0.20;;;8.60;99.90;;;;;;4935942;29;20207;-84
2022/04/24 08:35:34;;;;;;;0.20;0.20;;;8.60;99.90;;;;;;4934701;29;20223;-82
2022/04/24 08:38:06;;;;;;;0.20;0.20;;;8.70;99.90;;;;;;4932562;29;20258;-85
2022/04/24 08:40:33;;;;;;;0.20;0.20;;;8.60;99.90;;;;;;4928876;29;20207;-85
2022/04/24 08:43:27;;;;;;;0.20;0.20;;;8.80;99.90;;;;;;4936039;29;20203;-85
2022/04/24 08:45:57;;;;;;;0.20;0.20;;;8.80;99.90;;;;;;4937579;29;20230;-84
2022/04/24 08:48:24;;;;;;;0.20;0.20;;;8.90;99.90;;;;;;4936975;29;20237;-85
2022/04/24 08:50:52;;;;;;;0.20;0.20;;;8.80;99.90;;;;;;4930170;29;20211;-84
2022/04/24 08:53:23;;;;;;;0.20;0.20;;;8.80;99.90;;;;;;4931625;29;20221;-83
2022/04/24 08:56:01;;;;;;;0.20;0.20;;;8.80;99.90;;;;;;4932555;29;20250;-84
2022/04/24 08:58:30;;;;;;;0.20;0.20;;;8.70;99.90;;;;;;4932271;29;20222;-82
2022/04/24 09:00:59;;;;;;;0.20;0.20;;;8.70;99.90;;;;;;4951010;29;20275;-83
2022/04/24 09:03:30;;;;;;;0.20;0.20;;;8.80;99.90;;;;;;4953278;29;20208;-83
2022/04/24 09:06:01;;;;;;;0.20;0.20;;;8.80;99.90;;;;;;4953603;29;20215;-83
2022/04/24 09:08:40;;;;;;;0.20;0.20;;;8.90;99.90;;;;;;4951545;29;20233;-83
2022/04/24 09:11:11;;;;;;;0.20;0.20;;;9.00;99.90;;;;;;4933772;29;20211;-85
2022/04/24 09:16:36;;;;;;;0.20;0.20;;;9.10;99.90;;;;;;4945729;29;20227;-83
2022/04/24 09:19:04;;;;;;;0.20;0.20;;;9.20;99.90;;;;;;4930044;29;20242;-83
2022/04/24 09:21:31;;;;;;;0.30;0.30;;;9.30;99.90;;;;;;4938061;29;20204;-83
2022/04/24 09:24:00;;;;;;;0.22;0.22;;;9.30;99.90;;;;;;4929811;29;20230;-83
2022/04/24 09:26:27;;;;;;;0.20;0.20;;;9.40;99.90;;;;;;4931300;29;20208;-83
2022/04/24 09:28:55;;;;;;;0.22;0.20;;;9.60;99.90;;;;;;4926315;29;20227;-82
2022/04/24 09:31:28;;;;;;;0.20;0.20;;;9.40;99.90;;;;;;4927286;29;20272;-83
2022/04/24 09:33:55;;;;;;;0.20;0.20;;;9.30;99.90;;;;;;4923247;29;20228;-83
2022/04/24 09:36:26;;;;;;;0.30;0.30;;;9.20;99.90;;;;;;4923349;29;20208;-83
2022/04/24 09:38:52;;;;;;;0.20;0.20;;;9.10;99.90;;;;;;4924225;29;20234;-83
2022/04/24 09:41:21;;;;;;;0.20;0.20;;;9.10;99.90;;;;;;4942665;29;20209;-83
2022/04/24 09:43:48;;;;;;;0.20;0.20;;;9.20;99.90;;;;;;4929339;29;20216;-83
2022/04/24 09:46:25;;;;;;;0.20;0.20;;;9.10;99.90;;;;;;4925961;29;20263;-82
2022/04/24 09:48:53;;;;;;;0.20;0.20;;;9.10;99.90;;;;;;4937492;29;20481;-83
2022/04/24 09:51:21;;;;;;;0.20;0.20;;;9.20;99.90;;;;;;4936835;29;20203;-82
2022/04/24 09:53:48;;;;;;;0.20;0.20;;;9.20;99.90;;;;;;4921137;29;20203;-82
2022/04/24 09:56:15;;;;;;;0.20;0.20;;;9.10;99.90;;;;;;4921044;29;20211;-82
2022/04/24 09:58:44;;;;;;;0.20;0.20;;;9.00;99.90;;;;;;4922434;29;20227;-84
2022/04/24 10:01:12;;;;;;;0.20;0.20;;;9.20;99.90;;;;;;4938627;29;20579;-84
2022/04/24 10:03:41;;;;;;;0.20;0.20;;;9.20;99.90;;;;;;4932165;29;20239;-83
2022/04/24 10:06:08;;;;;;;0.20;0.20;;;9.30;99.90;;;;;;4919865;29;20213;-82
2022/04/24 10:08:35;;;;;;;0.20;0.20;;;9.30;99.90;;;;;;4924248;29;20239;-83
2022/04/24 10:11:04;;;;;;;0.20;0.20;;;9.40;99.90;;;;;;4923138;29;20216;-82
2022/04/24 10:13:32;;;;;;;0.20;0.20;;;9.50;99.90;;;;;;4930906;29;20409;-81
2022/04/24 10:16:11;;;;;;;0.20;0.20;;;9.40;99.90;;;;;;4937910;29;20541;-81
2022/04/24 10:19:22;;;;;;;0.20;0.20;;;9.40;99.90;;;;;;4934250;29;20543;-85
2022/04/24 10:22:05;;;;;;;0.20;0.20;;;9.40;99.90;;;;;;4931629;29;20715;-83
2022/04/24 10:24:40;;;;;;;0.20;0.20;;;9.40;99.90;;;;;;4929015;29;20443;-83
2022/04/24 10:27:07;;;;;;;0.20;0.20;;;9.30;99.90;;;;;;4918336;29;20237;-83
2022/04/24 10:29:34;;;;;;;0.20;0.20;;;9.40;99.90;;;;;;4924365;29;20227;-82
2022/04/24 10:32:04;;;;;;;0.30;0.30;;;9.60;99.90;;;;;;4921031;29;20218;-81
2022/04/24 10:34:40;;;;;;;0.20;0.20;;;9.50;99.90;;;;;;4921058;29;20227;-83
2022/04/24 10:37:08;;;;;;;0.20;0.20;;;9.40;99.90;;;;;;4927503;29;20209;-80
2022/04/24 10:39:35;;;;;;;0.20;0.20;;;9.50;99.90;;;;;;4939207;29;20234;-80
2022/04/24 10:42:08;;;;;;;0.30;0.30;;;9.40;99.90;;;;;;4934104;29;20261;-81
2022/04/24 10:44:35;;;;;;;0.20;0.20;;;9.50;99.90;;;;;;4942159;29;20210;-82
2022/04/24 10:47:11;;;;;;;0.30;0.30;;;9.60;99.90;;;;;;4928939;29;20212;-81
2022/04/24 10:49:38;;;;;;;0.47;0.47;;;9.60;99.90;;;;;;4927858;29;20227;-81
2022/04/24 10:52:06;;;;;;;0.30;0.20;;;9.60;99.90;;;;;;4943188;29;20688;-82
2022/04/24 10:54:36;;;;;;;0.30;0.30;;;9.60;99.90;;;;;;4936836;29;20258;-82
2022/04/24 10:57:16;;;;;;;0.30;0.20;;;9.60;99.90;;;;;;4929453;29;20262;-81
2022/04/24 10:59:48;;;;;;;0.20;0.20;;;9.80;99.90;;;;;;4946268;29;20259;-82
2022/04/24 11:02:20;;;;;;;0.20;0.20;;;9.80;99.90;;;;;;4948439;29;20203;-82
2022/04/24 11:04:47;;;;;;;0.20;0.20;;;10.00;99.90;;;;;;4929551;29;20249;-81
2022/04/24 11:07:21;;;;;;;0.20;0.20;;;10.00;99.90;;;;;;4928015;29;20218;-81
2022/04/24 11:09:49;;;;;;;0.30;0.30;;;10.10;99.90;;;;;;4941901;29;20985;-80
2022/04/24 11:12:16;;;;;;;0.20;0.20;;;9.90;99.90;;;;;;4942813;29;21731;-82
2022/04/24 11:14:42;;;;;;;0.20;0.20;;;9.70;99.90;;;;;;4926451;29;20240;-82
2022/04/24 11:17:09;;;;;;;0.30;0.30;;;9.60;99.90;;;;;;4927715;29;20455;-82
2022/04/24 11:19:37;;;;;;;0.20;0.20;;;9.50;99.90;;;;;;4948722;29;20235;-82
2022/04/24 11:22:07;;;;;;;0.25;0.20;;;9.40;99.90;;;;;;4946745;29;20227;-82
2022/04/24 11:24:36;;;;;;;0.20;0.20;;;9.30;99.90;;;;;;4943890;29;20696;-83
2022/04/24 11:27:06;;;;;;;0.20;0.20;;;9.40;99.90;;;;;;4946763;29;20290;-82
2022/04/24 11:29:33;;;;;;;0.20;0.20;;;9.30;99.90;;;;;;4947529;29;20235;-82
2022/04/24 11:32:00;;;;;;;0.20;0.20;;;9.40;99.90;;;;;;4931828;29;20211;-81
2022/04/24 11:34:26;;;;;;;0.20;0.20;;;9.40;99.90;;;;;;4932269;29;20204;-82
2022/04/24 11:36:57;;;;;;;0.30;0.30;;;9.50;99.90;;;;;;4939296;29;20214;-82
2022/04/24 11:39:24;;;;;;;0.20;0.20;;;9.60;99.90;;;;;;4943964;29;20232;-83
2022/04/24 11:41:52;;;;;;;0.20;0.20;;;9.70;99.90;;;;;;4928805;29;20464;-83
2022/04/24 11:52:36;;;;;;;0.20;0.20;;;10.00;99.90;;;;;;4947261;29;20305;-81
2022/04/24 11:55:04;;;;;;;0.30;0.30;;;10.00;99.90;;;;;;4940616;29;20522;-81
2022/04/24 11:57:31;;;;;;;0.20;0.20;;;10.20;99.90;;;;;;4945535;29;20219;-82
2022/04/24 11:59:59;;;;;;;0.20;0.20;;;10.10;99.90;;;;;;4931647;29;20232;-81
2022/04/24 12:02:28;;;;;;;0.20;0.20;;;10.00;99.90;;;;;;4939391;29;20832;-81
2022/04/24 12:04:56;;;;;;;0.20;0.20;;;10.20;99.90;;;;;;4931542;29;20207;-81
2022/04/24 12:07:31;;;;;;;0.20;0.20;;;10.20;99.90;;;;;;4922676;29;20211;-83
2022/04/24 12:09:59;;;;;;;0.25;0.25;;;10.10;99.90;;;;;;4943347;29;20227;-82
2022/04/24 12:12:26;;;;;;;0.20;0.20;;;10.20;99.90;;;;;;4956635;29;20210;-82
2022/04/24 12:14:53;;;;;;;0.28;0.28;;;10.30;99.90;;;;;;4955331;29;20233;-82
2022/04/24 12:17:22;;;;;;;0.20;0.20;;;10.20;99.90;;;;;;4953686;29;20207;-82
2022/04/24 12:19:56;;;;;;;0.20;0.20;;;10.10;99.90;;;;;;4937628;29;20484;-81
2022/04/24 12:22:30;;;;;;;0.20;0.20;;;10.20;99.90;;;;;;4937298;29;20247;-81
2022/04/24 12:25:07;;;;;;;0.20;0.20;;;10.10;99.90;;;;;;4955111;29;20239;-81
2022/04/24 12:27:34;;;;;;;0.20;0.20;;;10.10;99.90;;;;;;4941014;29;20211;-82
2022/04/24 12:30:03;;;;;;;0.20;0.20;;;10.10;99.90;;;;;;4936057;29;20811;-81
2022/04/24 12:32:31;;;;;;;0.20;0.20;;;10.10;99.90;;;;;;4947061;29;20458;-81
2022/04/24 12:34:58;;;;;;;0.20;0.20;;;10.00;99.90;;;;;;4951234;29;20237;-81
2022/04/24 12:37:29;;;;;;;0.20;0.20;;;10.00;99.90;;;;;;4941239;29;20461;-80
2022/04/24 12:39:57;;;;;;;0.20;0.20;;;10.10;99.90;;;;;;4930732;23;20229;-81
2022/04/24 12:42:58;;;;;;;0.20;0.20;;;10.20;99.90;;;;;;4932011;29;20566;-81
2022/04/24 12:45:43;;;;;;;0.20;0.20;;;10.40;99.90;;;;;;4923017;29;20448;-82
2022/04/24 12:48:18;;;;;;;0.20;0.20;;;10.30;99.90;;;;;;4929418;29;20477;-81
2022/04/24 12:50:55;;;;;;;0.20;0.20;;;10.30;99.90;;;;;;4915027;29;20456;-81
2022/04/24 12:53:23;;;;;;;0.20;0.20;;;10.30;99.90;;;;;;4913325;29;20486;-82
2022/04/24 12:55:51;;;;;;;0.20;0.20;;;10.30;99.90;;;;;;4915145;29;20493;-81
2022/04/24 12:58:18;;;;;;;0.20;0.20;;;10.20;99.90;;;;;;4912128;29;20955;-81
2022/04/24 13:00:46;;;;;;;0.20;0.20;;;10.10;99.90;;;;;;4913579;29;20214;-81
2022/04/24 13:03:15;;;;;;;0.20;0.20;;;10.10;99.90;;;;;;4906427;29;20208;-81
2022/04/24 13:05:42;;;;;;;0.20;0.20;;;10.10;99.90;;;;;;4909383;29;20464;-81
2022/04/24 13:08:09;;;;;;;0.20;0.20;;;10.00;99.90;;;;;;4910779;29;20481;-82
2022/04/24 13:10:36;;;;;;;0.30;0.30;;;9.80;99.90;;;;;;4911272;29;20463;-82
2022/04/24 13:13:03;;;;;;;0.20;0.20;;;9.80;99.90;;;;;;4911974;29;20209;-82
2022/04/24 13:15:32;;;;;;;0.20;0.20;;;9.70;99.90;;;;;;4893163;29;20237;-82
2022/04/24 13:18:08;;;;;;;0.20;0.20;;;9.80;99.90;;;;;;4908001;29;20465;-82
2022/04/24 13:20:38;;;;;;;0.20;0.20;;;9.90;99.90;;;;;;4911253;29;20469;-82
2022/04/24 13:23:06;;;;;;;0.20;0.20;;;9.90;99.90;;;;;;4910766;29;20189;-82
2022/04/24 13:25:34;;;;;;;0.20;0.20;;;9.80;99.90;;;;;;4910329;29;20583;-82
2022/04/24 13:28:01;;;;;;;0.20;0.20;;;9.80;99.90;;;;;;4910584;29;20240;-82
2022/04/24 13:30:28;;;;;;;0.20;0.20;;;9.80;99.90;;;;;;4910637;29;20241;-81
2022/04/24 13:32:54;;;;;;;0.30;0.30;;;9.80;99.90;;;;;;4907257;29;20444;-83
2022/04/24 13:35:21;;;;;;;0.20;0.20;;;9.80;99.90;;;;;;4910477;29;20236;-82
2022/04/24 13:40:33;;;;;;;0.20;0.20;;;10.00;99.90;;;;;;4908034;29;20604;-84
2022/04/24 13:43:02;;;;;;;0.20;0.20;;;10.30;99.90;;;;;;4916276;29;20582;-84
2022/04/24 13:45:30;;;;;;;0.30;0.30;;;10.20;99.90;;;;;;4914105;29;20204;-83
2022/04/24 13:47:56;;;;;;;0.20;0.20;;;10.20;99.90;;;;;;4909589;29;20208;-83
2022/04/24 13:50:23;;;;;;;0.20;0.20;;;10.20;99.90;;;;;;4906789;29;20216;-83
2022/04/24 13:52:54;;;;;;;0.20;0.20;;;10.20;99.90;;;;;;4906840;29;20225;-83
2022/04/24 13:55:21;;;;;;;0.20;0.20;;;9.90;99.90;;;;;;4907959;29;20223;-82
2022/04/24 13:57:47;;;;;;;0.20;0.20;;;9.90;99.90;;;;;;4908019;29;20209;-82
2022/04/24 14:00:15;;;;;;;0.20;0.20;;;9.90;99.90;;;;;;4907286;29;20206;-82
2022/04/24 14:02:42;;;;;;;0.20;0.20;;;10.00;99.90;;;;;;4907252;29;20216;-82
2022/04/24 14:05:11;;;;;;;0.20;0.20;;;10.10;99.90;;;;;;4905137;29;20208;-82
2022/04/24 14:07:39;;;;;;;0.20;0.20;;;10.10;99.90;;;;;;4905842;29;20209;-82
2022/04/24 14:10:08;;;;;;;0.20;0.20;;;10.20;99.90;;;;;;4906052;29;20233;-81
2022/04/24 14:12:37;;;;;;;0.20;0.20;;;10.20;99.90;;;;;;4906533;29;20454;-83
2022/04/24 14:15:05;;;;;;;0.20;0.20;;;10.30;99.90;;;;;;4906714;29;20212;-82
2022/04/24 14:17:31;;;;;;;0.20;0.20;;;10.30;99.90;;;;;;4906875;29;21179;-84
2022/04/24 14:19:58;;;;;;;0.20;0.20;;;10.10;99.90;;;;;;4906066;29;20971;-82
2022/04/24 14:22:25;;;;;;;0.20;0.20;;;10.10;99.90;;;;;;4905139;29;20453;-81
2022/04/24 14:24:53;;;;;;;0.20;0.20;;;10.00;99.90;;;;;;4905533;29;20238;-81
2022/04/24 14:27:21;;;;;;;0.20;0.20;;;10.00;99.90;;;;;;4906293;29;20586;-83
2022/04/24 14:29:48;;;;;;;0.20;0.20;;;10.00;99.90;;;;;;4907446;29;20483;-82
2022/04/24 14:32:15;;;;;;;0.20;0.20;;;10.10;99.90;;;;;;4909315;29;20211;-82
2022/04/24 14:34:41;;;;;;;0.20;0.20;;;10.00;99.90;;;;;;4909818;29;20464;-81
2022/04/24 14:37:08;;;;;;;0.30;0.30;;;10.00;99.90;;;;;;4910487;29;20521;-81
2022/04/24 14:58:03;;;;;;;0.20;0.20;;;9.70;99.90;;;;;;4941297;29;20301;-82
2022/04/24 15:00:31;;;;;;;0.30;0.30;;;9.60;99.90;;;;;;4936579;29;20230;-82
2022/04/24 15:02:59;;;;;;;0.20;0.20;;;9.60;99.90;;;;;;4930036;29;20691;-82
2022/04/24 15:05:26;;;;;;;0.43;0.43;;;9.70;99.90;;;;;;4922849;29;20268;-82
2022/04/24 15:07:55;;;;;;;0.20;0.20;;;9.60;99.90;;;;;;4926013;29;20231;-77
2022/04/24 15:10:24;;;;;;;0.20;0.20;;;9.40;99.90;;;;;;4931411;29;20210;-81
2022/04/24 15:12:50;;;;;;;0.30;0.30;;;9.40;99.90;;;;;;4932931;29;20259;-82
2022/04/24 15:15:36;;;;;;;0.20;0.20;;;9.40;99.90;;;;;;4937292;29;20490;-82
2022/04/24 15:27:10;;;;;;;0.20;0.20;;;9.60;99.90;;;;;;4931913;29;20215;-83
2022/04/24 15:40:44;;;;;;;0.20;0.20;;;9.80;99.90;;;;;;1432011;27;20231;-82
2022/04/24 15:43:17;;;;;;;0.20;0.20;;;9.60;99.90;;;;;;4886729;29;21019;-82
2022/04/24 15:46:19;;;;;;;0.20;0.20;;;9.60;99.90;;;;;;4890642;29;20447;-83
2022/04/24 15:51:44;;;;;;;0.20;0.20;;;9.60;99.90;;;;;;4923261;29;20932;-82
2022/04/24 15:58:01;;;;;;;0.20;0.20;;;9.70;99.90;;;;;;4922557;29;21032;-83
2022/04/24 16:01:15;;;;;;;0.20;0.20;;;9.70;99.90;;;;;;4818479;29;20460;-83
2022/04/24 16:11:03;;;;;;;0.20;0.20;;;9.10;99.90;;;;;;4773827;30;20217;-82
2022/04/24 16:37:43;;;;;;;0.20;0.20;;;8.90;99.90;;;;;;4838318;29;20239;-83
2022/04/24 16:40:13;;;;;;;0.20;0.20;;;9.00;99.90;;;;;;4911800;29;20597;-81
2022/04/24 16:42:41;;;;;;;0.20;0.20;;;8.80;99.90;;;;;;4911807;29;20593;-83
2022/04/24 16:45:09;;;;;;;0.20;0.20;;;8.80;99.90;;;;;;4909105;29;20207;-83
2022/04/24 16:47:37;;;;;;;0.20;0.20;;;8.80;99.90;;;;;;4909136;29;20319;-80
2022/04/24 16:58:47;;;;;;;0.20;0.20;;;8.80;99.90;;;;;;4924339;29;20245;-80
2022/04/24 17:01:15;;;;;;;0.22;0.20;;;8.70;99.90;;;;;;4913805;29;20211;-81
2022/04/24 17:03:42;;;;;;;0.70;0.70;;;8.70;99.90;;;;;;4914217;29;20240;-82
2022/04/24 17:06:08;;;;;;;0.20;0.20;;;8.70;99.90;;;;;;4910638;29;20240;-82
2022/04/24 17:12:42;;;;;;;0.20;0.20;;;8.80;99.90;;;;;;4891005;29;20217;-82
2022/04/24 17:15:09;;;;;;;0.30;0.20;;;8.80;99.90;;;;;;4906837;29;20223;-83
2022/04/24 17:17:37;;;;;;;0.20;0.20;;;8.80;99.90;;;;;;4903842;29;20225;-81
2022/04/24 17:20:05;;;;;;;0.20;0.20;;;8.90;99.90;;;;;;4897541;29;20236;-82
2022/04/24 17:22:32;;;;;;;0.30;0.20;;;9.00;99.90;;;;;;4905032;29;20264;-82
2022/04/24 17:24:58;;;;;;;0.30;0.30;;;9.00;99.90;;;;;;4904708;29;20733;-81
2022/04/24 17:27:25;;;;;;;0.30;0.30;;;9.00;99.90;;;;;;4906295;29;20208;-81
2022/04/24 17:29:53;;;;;;;0.30;0.20;;;9.10;99.90;;;;;;4906047;29;20238;-83
2022/04/24 17:32:22;;;;;;;1.42;1.42;;;9.20;99.90;;;;;;4914738;29;20205;-82
2022/04/24 17:34:48;;;;;;;0.20;0.20;;;9.30;99.90;;;;;;4914559;29;20204;-82
2022/04/24 17:37:21;;;;;;;0.20;0.20;;;9.20;99.90;;;;;;4915798;29;20231;-82
2022/04/24 17:39:48;;;;;;;0.20;0.20;;;9.30;99.90;;;;;;4916841;29;20236;-82
2022/04/24 17:42:15;;;;;;;0.20;0.20;;;9.30;99.90;;;;;;4914775;29;20213;-82
2022/04/24 17:44:42;;;;;;;0.20;0.20;;;9.40;99.90;;;;;;4915257;29;20216;-83
2022/04/24 17:47:10;;;;;;;0.20;0.20;;;9.50;99.90;;;;;;4914281;29;20207;-82
2022/04/24 17:49:37;;;;;;;0.20;0.20;;;9.60;99.90;;;;;;4912829;29;20264;-82
2022/04/24 17:52:05;;;;;;;0.20;0.20;;;9.50;99.90;;;;;;4914678;29;20236;-81
2022/04/24 17:54:33;;;;;;;0.40;0.40;;;9.50;99.90;;;;;;4914501;29;20451;-82
2022/04/24 17:56:59;;;;;;;0.20;0.20;;;9.50;99.90;;;;;;4911886;29;20228;-82
2022/04/24 17:59:27;;;;;;;0.40;0.40;;;9.50;99.90;;;;;;4912652;29;20233;-81
2022/04/24 18:01:55;;;;;;;0.20;0.20;;;9.50;99.90;;;;;;4912968;29;20235;-82
2022/04/24 18:04:23;;;;;;;0.22;0.20;;;9.70;99.90;;;;;;4908596;29;20458;-83
2022/04/24 18:06:50;;;;;;;0.20;0.20;;;9.80;99.90;;;;;;4906851;29;20210;-84
2022/04/24 18:09:16;;;;;;;0.20;0.20;;;9.90;99.90;;;;;;4908723;29;20527;-83
2022/04/24 18:11:44;;;;;;;0.20;0.20;;;10.00;99.90;;;;;;4907306;29;20465;-84
2022/04/24 18:14:11;;;;;;;0.20;0.20;;;9.90;99.90;;;;;;4907453;29;21046;-84
2022/04/24 18:16:37;;;;;;;0.20;0.20;;;10.00;99.90;;;;;;4907392;29;20648;-84
2022/04/24 18:19:06;;;;;;;0.20;0.20;;;10.10;99.90;;;;;;4908431;29;20801;-83
2022/04/24 18:21:34;;;;;;;0.20;0.20;;;10.10;99.90;;;;;;4906363;29;20552;-84
2022/04/24 18:24:10;;;;;;;0.20;0.20;;;10.10;99.90;;;;;;4905247;29;20244;-84
2022/04/24 18:26:36;;;;;;;0.20;0.20;;;10.00;99.90;;;;;;4905645;29;20219;-84
2022/04/24 18:29:04;;;;;;;0.20;0.20;;;10.00;99.90;;;;;;4906956;29;20456;-84
2022/04/24 18:31:31;;;;;;;0.20;0.20;;;10.10;99.90;;;;;;4907545;29;20468;-83
2022/04/24 18:33:58;;;;;;;0.20;0.20;;;10.10;99.90;;;;;;4908100;29;20460;-84
2022/04/24 18:46:57;;;;;;;0.20;0.20;;;10.20;99.90;;;;;;4914872;29;20484;-83
2022/04/24 18:49:29;;;;;;;0.20;0.20;;;10.00;99.90;;;;;;4899259;29;20547;-82
2022/04/24 18:51:56;;;;;;;0.20;0.20;;;9.90;99.90;;;;;;4893952;29;20455;-82
2022/04/24 18:54:24;;;;;;;2.00;2.00;;;10.00;99.90;;;;;;4894620;29;20678;-83
2022/04/24 18:56:51;;;;;;;0.20;0.20;;;10.00;99.90;;;;;;4893066;29;20496;-82
2022/04/24 18:59:18;;;;;;;0.20;0.20;;;10.10;99.90;;;;;;4898813;29;20540;-84
2022/04/24 19:01:48;;;;;;;0.20;0.20;;;10.10;99.90;;;;;;4891003;29;20494;-82
2022/04/24 19:12:29;;;;;;;0.20;0.20;;;10.10;99.90;;;;;;4901914;29;20477;-82
2022/04/24 19:14:56;;;;;;;0.22;0.20;;;10.00;99.90;;;;;;4904376;29;20465;-83
2022/04/24 19:17:23;;;;;;;0.20;0.20;;;10.10;99.90;;;;;;4905432;29;20233;-81